sensor_id;sensor_type;location;lat;lon;timestamp;temperature;humidity
31725;DHT22;18306;40.960;14.836;2022-08-16T00:00:08;22.50;99.90
31725;DHT22;18306;40.960;14.836;2022-08-16T00:02:38;22.50;99.90
31725;DHT22;18306;40.960;14.836;2022-08-16T00:05:05;22.60;99.90
31725;DHT22;18306;40.960;14.836;2022-08-16T00:07:32;22.60;99.90
31725;DHT22;18306;40.960;14.836;2022-08-16T00:09:59;22.60;99.90
31725;DHT22;18306;40.960;14.836;2022-08-16T00:12:26;22.50;99.90
31725;DHT22;18306;40.960;14.836;2022-08-16T00:14:54;22.50;99.90
31725;DHT22;18306;40.960;14.836;2022-08-16T00:17:21;22.60;99.90
31725;DHT22;18306;40.960;14.836;2022-08-16T00:19:48;22.60;99.90
31725;DHT22;18306;40.960;14.836;2022-08-16T00:22:14;22.70;99.90
31725;DHT22;18306;40.960;14.836;2022-08-16T00:24:42;22.50;99.90
31725;DHT22;18306;40.960;14.836;2022-08-16T00:27:09;22.30;99.90
31725;DHT22;18306;40.960;14.836;2022-08-16T00:29:37;22.30;99.90
31725;DHT22;18306;40.960;14.836;2022-08-16T00:32:04;22.30;99.90
31725;DHT22;18306;40.960;14.836;2022-08-16T00:34:35;22.40;99.90
31725;DHT22;18306;40.960;14.836;2022-08-16T00:37:02;22.50;99.90
31725;DHT22;18306;40.960;14.836;2022-08-16T00:39:29;22.60;99.90
31725;DHT22;18306;40.960;14.836;2022-08-16T00:41:56;22.60;99.90
31725;DHT22;18306;40.960;14.836;2022-08-16T00:44:24;22.70;99.90
31725;DHT22;18306;40.960;14.836;2022-08-16T00:46:59;22.80;99.90
31725;DHT22;18306;40.960;14.836;2022-08-16T00:49:27;22.80;99.90
31725;DHT22;18306;40.960;14.836;2022-08-16T00:51:54;22.60;99.90
31725;DHT22;18306;40.960;14.836;2022-08-16T00:54:23;22.60;99.90
31725;DHT22;18306;40.960;14.836;2022-08-16T00:56:50;22.50;99.90
31725;DHT22;18306;40.960;14.836;2022-08-16T00:59:21;22.50;99.90
31725;DHT22;18306;40.960;14.836;2022-08-16T01:01:48;22.40;99.90
31725;DHT22;18306;40.960;14.836;2022-08-16T01:04:16;22.30;99.90
31725;DHT22;18306;40.960;14.836;2022-08-16T01:06:45;22.20;99.90
31725;DHT22;18306;40.960;14.836;2022-08-16T01:09:12;22.10;99.90
31725;DHT22;18306;40.960;14.836;2022-08-16T01:11:39;22.10;99.90
31725;DHT22;18306;40.960;14.836;2022-08-16T01:14:09;22.20;99.90
31725;DHT22;18306;40.960;14.836;2022-08-16T01:16:46;22.50;99.90
31725;DHT22;18306;40.960;14.836;2022-08-16T01:19:19;22.50;99.90
31725;DHT22;18306;40.960;14.836;2022-08-16T01:21:55;22.40;99.90
31725;DHT22;18306;40.960;14.836;2022-08-16T01:24:28;22.50;99.90
31725;DHT22;18306;40.960;14.836;2022-08-16T01:32:22;20.30;99.90
31725;DHT22;18306;40.960;14.836;2022-08-16T01:34:52;19.50;99.90
31725;DHT22;18306;40.960;14.836;2022-08-16T01:37:25;18.90;99.90
31725;DHT22;18306;40.960;14.836;2022-08-16T01:40:01;18.60;99.90
31725;DHT22;18306;40.960;14.836;2022-08-16T01:42:36;18.70;99.90
31725;DHT22;18306;40.960;14.836;2022-08-16T01:45:09;18.70;99.90
31725;DHT22;18306;40.960;14.836;2022-08-16T01:47:46;18.80;99.90
31725;DHT22;18306;40.960;14.836;2022-08-16T01:50:19;19.10;99.90
31725;DHT22;18306;40.960;14.836;2022-08-16T01:52:46;19.60;99.90
31725;DHT22;18306;40.960;14.836;2022-08-16T01:55:24;19.40;99.90
31725;DHT22;18306;40.960;14.836;2022-08-16T01:57:54;19.50;99.90
31725;DHT22;18306;40.960;14.836;2022-08-16T02:00:21;19.40;99.90
31725;DHT22;18306;40.960;14.836;2022-08-16T02:02:47;19.70;99.90
31725;DHT22;18306;40.960;14.836;2022-08-16T02:05:14;19.90;99.90
31725;DHT22;18306;40.960;14.836;2022-08-16T02:07:41;20.30;99.90
31725;DHT22;18306;40.960;14.836;2022-08-16T02:10:09;20.30;99.90
31725;DHT22;18306;40.960;14.836;2022-08-16T02:12:42;19.70;99.90
31725;DHT22;18306;40.960;14.836;2022-08-16T02:15:09;19.80;99.90
31725;DHT22;18306;40.960;14.836;2022-08-16T02:17:36;19.90;99.90
31725;DHT22;18306;40.960;14.836;2022-08-16T02:20:06;19.90;99.90
31725;DHT22;18306;40.960;14.836;2022-08-16T02:22:34;20.00;99.90
31725;DHT22;18306;40.960;14.836;2022-08-16T02:25:03;20.20;99.90
31725;DHT22;18306;40.960;14.836;2022-08-16T02:27:31;20.30;99.90
31725;DHT22;18306;40.960;14.836;2022-08-16T02:29:57;20.50;99.90
31725;DHT22;18306;40.960;14.836;2022-08-16T02:32:24;20.30;99.90
31725;DHT22;18306;40.960;14.836;2022-08-16T02:34:51;20.30;99.90
31725;DHT22;18306;40.960;14.836;2022-08-16T02:37:18;20.30;99.90
31725;DHT22;18306;40.960;14.836;2022-08-16T02:39:45;20.40;99.90
31725;DHT22;18306;40.960;14.836;2022-08-16T02:42:11;20.20;99.90
31725;DHT22;18306;40.960;14.836;2022-08-16T02:44:38;20.40;99.90
31725;DHT22;18306;40.960;14.836;2022-08-16T02:47:05;20.50;99.90
31725;DHT22;18306;40.960;14.836;2022-08-16T02:49:32;20.40;99.90
31725;DHT22;18306;40.960;14.836;2022-08-16T02:51:58;20.50;99.90
31725;DHT22;18306;40.960;14.836;2022-08-16T02:54:25;20.40;99.90
31725;DHT22;18306;40.960;14.836;2022-08-16T02:56:52;20.30;99.90
31725;DHT22;18306;40.960;14.836;2022-08-16T02:59:18;20.20;99.90
31725;DHT22;18306;40.960;14.836;2022-08-16T03:01:45;20.20;99.90
31725;DHT22;18306;40.960;14.836;2022-08-16T03:04:17;20.20;99.90
31725;DHT22;18306;40.960;14.836;2022-08-16T03:06:44;20.30;99.90
31725;DHT22;18306;40.960;14.836;2022-08-16T03:09:20;20.20;99.90
31725;DHT22;18306;40.960;14.836;2022-08-16T03:11:51;20.20;99.90
31725;DHT22;18306;40.960;14.836;2022-08-16T03:14:18;20.30;99.90
31725;DHT22;18306;40.960;14.836;2022-08-16T03:16:45;20.40;99.90
31725;DHT22;18306;40.960;14.836;2022-08-16T03:19:12;20.20;99.90
31725;DHT22;18306;40.960;14.836;2022-08-16T03:21:39;20.30;99.90
31725;DHT22;18306;40.960;14.836;2022-08-16T03:24:07;20.20;99.90
31725;DHT22;18306;40.960;14.836;2022-08-16T03:26:34;20.20;99.90
31725;DHT22;18306;40.960;14.836;2022-08-16T03:29:01;20.20;99.90
31725;DHT22;18306;40.960;14.836;2022-08-16T03:31:27;20.30;99.90
31725;DHT22;18306;40.960;14.836;2022-08-16T03:33:55;20.00;99.90
31725;DHT22;18306;40.960;14.836;2022-08-16T03:36:21;19.90;99.90
31725;DHT22;18306;40.960;14.836;2022-08-16T03:38:53;19.90;99.90
31725;DHT22;18306;40.960;14.836;2022-08-16T03:41:20;19.90;99.90
31725;DHT22;18306;40.960;14.836;2022-08-16T03:43:49;19.90;99.90
31725;DHT22;18306;40.960;14.836;2022-08-16T03:46:19;19.90;99.90
31725;DHT22;18306;40.960;14.836;2022-08-16T03:48:47;19.90;99.90
31725;DHT22;18306;40.960;14.836;2022-08-16T03:51:18;19.70;99.90
31725;DHT22;18306;40.960;14.836;2022-08-16T03:53:50;19.20;99.90
31725;DHT22;18306;40.960;14.836;2022-08-16T03:56:16;19.10;99.90
31725;DHT22;18306;40.960;14.836;2022-08-16T03:58:43;19.00;99.90
31725;DHT22;18306;40.960;14.836;2022-08-16T04:01:10;19.20;99.90
31725;DHT22;18306;40.960;14.836;2022-08-16T04:03:37;19.30;99.90
31725;DHT22;18306;40.960;14.836;2022-08-16T04:06:04;19.40;99.90
31725;DHT22;18306;40.960;14.836;2022-08-16T04:08:31;19.50;99.90
31725;DHT22;18306;40.960;14.836;2022-08-16T04:11:00;19.50;99.90
31725;DHT22;18306;40.960;14.836;2022-08-16T04:13:28;19.60;99.90
31725;DHT22;18306;40.960;14.836;2022-08-16T04:15:57;19.40;99.90
31725;DHT22;18306;40.960;14.836;2022-08-16T04:18:25;19.20;99.90
31725;DHT22;18306;40.960;14.836;2022-08-16T04:20:55;19.00;99.90
31725;DHT22;18306;40.960;14.836;2022-08-16T04:23:25;19.10;99.90
31725;DHT22;18306;40.960;14.836;2022-08-16T04:25:53;19.00;99.90
31725;DHT22;18306;40.960;14.836;2022-08-16T04:28:19;19.10;99.90
31725;DHT22;18306;40.960;14.836;2022-08-16T04:30:46;19.20;99.90
31725;DHT22;18306;40.960;14.836;2022-08-16T04:33:13;19.20;99.90
31725;DHT22;18306;40.960;14.836;2022-08-16T04:35:41;19.20;99.90
31725;DHT22;18306;40.960;14.836;2022-08-16T04:38:09;19.10;99.90
31725;DHT22;18306;40.960;14.836;2022-08-16T04:40:42;19.30;99.90
31725;DHT22;18306;40.960;14.836;2022-08-16T04:43:10;19.40;99.90
31725;DHT22;18306;40.960;14.836;2022-08-16T04:45:36;19.40;99.90
31725;DHT22;18306;40.960;14.836;2022-08-16T04:48:10;19.50;99.90
31725;DHT22;18306;40.960;14.836;2022-08-16T04:50:57;19.50;99.90
31725;DHT22;18306;40.960;14.836;2022-08-16T04:53:36;19.50;99.90
31725;DHT22;18306;40.960;14.836;2022-08-16T04:56:03;19.60;99.90
31725;DHT22;18306;40.960;14.836;2022-08-16T04:58:31;19.70;99.90
31725;DHT22;18306;40.960;14.836;2022-08-16T05:01:00;19.70;99.90
31725;DHT22;18306;40.960;14.836;2022-08-16T05:03:29;19.80;99.90
31725;DHT22;18306;40.960;14.836;2022-08-16T05:05:56;20.00;99.90
31725;DHT22;18306;40.960;14.836;2022-08-16T05:08:23;20.10;99.90
31725;DHT22;18306;40.960;14.836;2022-08-16T05:11:02;20.20;99.90
31725;DHT22;18306;40.960;14.836;2022-08-16T05:13:30;19.80;99.90
31725;DHT22;18306;40.960;14.836;2022-08-16T05:15:59;19.70;99.90
31725;DHT22;18306;40.960;14.836;2022-08-16T05:18:26;19.80;99.90
31725;DHT22;18306;40.960;14.836;2022-08-16T05:20:55;19.90;99.90
31725;DHT22;18306;40.960;14.836;2022-08-16T05:23:22;19.90;99.90
31725;DHT22;18306;40.960;14.836;2022-08-16T05:25:49;20.20;99.90
31725;DHT22;18306;40.960;14.836;2022-08-16T05:28:17;19.90;99.90
31725;DHT22;18306;40.960;14.836;2022-08-16T05:30:50;19.90;99.90
31725;DHT22;18306;40.960;14.836;2022-08-16T05:33:23;20.00;99.90
31725;DHT22;18306;40.960;14.836;2022-08-16T05:35:52;20.00;99.90
31725;DHT22;18306;40.960;14.836;2022-08-16T05:38:25;20.10;99.90
31725;DHT22;18306;40.960;14.836;2022-08-16T05:40:58;20.20;99.90
31725;DHT22;18306;40.960;14.836;2022-08-16T05:43:26;20.40;99.90
31725;DHT22;18306;40.960;14.836;2022-08-16T05:45:53;20.50;99.90
31725;DHT22;18306;40.960;14.836;2022-08-16T05:48:20;20.70;99.90
31725;DHT22;18306;40.960;14.836;2022-08-16T05:50:57;21.00;99.90
31725;DHT22;18306;40.960;14.836;2022-08-16T05:53:28;21.40;99.90
31725;DHT22;18306;40.960;14.836;2022-08-16T05:56:05;21.50;99.90
31725;DHT22;18306;40.960;14.836;2022-08-16T05:58:34;21.40;99.90
31725;DHT22;18306;40.960;14.836;2022-08-16T06:01:02;21.50;99.90
31725;DHT22;18306;40.960;14.836;2022-08-16T06:03:29;21.70;99.90
31725;DHT22;18306;40.960;14.836;2022-08-16T06:06:00;21.70;99.90
31725;DHT22;18306;40.960;14.836;2022-08-16T06:08:27;21.80;99.90
31725;DHT22;18306;40.960;14.836;2022-08-16T06:10:54;22.00;99.90
31725;DHT22;18306;40.960;14.836;2022-08-16T06:13:21;22.20;99.90
31725;DHT22;18306;40.960;14.836;2022-08-16T06:15:49;22.30;99.90
31725;DHT22;18306;40.960;14.836;2022-08-16T06:18:18;22.40;99.90
31725;DHT22;18306;40.960;14.836;2022-08-16T06:20:47;22.50;99.90
31725;DHT22;18306;40.960;14.836;2022-08-16T06:23:18;22.60;99.90
31725;DHT22;18306;40.960;14.836;2022-08-16T06:25:54;23.00;99.90
31725;DHT22;18306;40.960;14.836;2022-08-16T06:28:23;23.00;99.90
31725;DHT22;18306;40.960;14.836;2022-08-16T06:30:50;24.80;99.90
31725;DHT22;18306;40.960;14.836;2022-08-16T06:33:17;28.60;99.90
31725;DHT22;18306;40.960;14.836;2022-08-16T06:35:45;30.40;99.90
31725;DHT22;18306;40.960;14.836;2022-08-16T06:38:13;31.60;99.90
31725;DHT22;18306;40.960;14.836;2022-08-16T06:40:40;31.00;99.90
31725;DHT22;18306;40.960;14.836;2022-08-16T06:43:07;32.10;99.90
31725;DHT22;18306;40.960;14.836;2022-08-16T06:45:39;31.60;99.90
31725;DHT22;18306;40.960;14.836;2022-08-16T06:48:30;31.50;99.90
31725;DHT22;18306;40.960;14.836;2022-08-16T06:50:56;33.70;99.90
31725;DHT22;18306;40.960;14.836;2022-08-16T06:53:23;31.70;99.90
31725;DHT22;18306;40.960;14.836;2022-08-16T06:55:57;29.60;99.90
31725;DHT22;18306;40.960;14.836;2022-08-16T06:58:26;27.30;99.90
31725;DHT22;18306;40.960;14.836;2022-08-16T07:01:00;25.90;99.90
31725;DHT22;18306;40.960;14.836;2022-08-16T07:03:29;25.20;99.90
31725;DHT22;18306;40.960;14.836;2022-08-16T07:05:57;25.20;99.90
31725;DHT22;18306;40.960;14.836;2022-08-16T07:08:31;24.50;99.90
31725;DHT22;18306;40.960;14.836;2022-08-16T07:10:57;24.60;99.90
31725;DHT22;18306;40.960;14.836;2022-08-16T07:13:27;24.60;99.90
31725;DHT22;18306;40.960;14.836;2022-08-16T07:15:55;24.80;99.90
31725;DHT22;18306;40.960;14.836;2022-08-16T07:18:27;24.60;99.90
31725;DHT22;18306;40.960;14.836;2022-08-16T07:20:54;24.70;99.90
31725;DHT22;18306;40.960;14.836;2022-08-16T07:23:24;24.90;99.90
31725;DHT22;18306;40.960;14.836;2022-08-16T07:25:55;24.80;99.90
31725;DHT22;18306;40.960;14.836;2022-08-16T07:28:25;24.50;99.90
31725;DHT22;18306;40.960;14.836;2022-08-16T07:31:00;24.30;99.90
31725;DHT22;18306;40.960;14.836;2022-08-16T07:33:39;24.40;99.90
31725;DHT22;18306;40.960;14.836;2022-08-16T07:36:07;24.30;99.90
31725;DHT22;18306;40.960;14.836;2022-08-16T07:38:38;24.30;99.90
31725;DHT22;18306;40.960;14.836;2022-08-16T07:41:07;24.30;99.90
31725;DHT22;18306;40.960;14.836;2022-08-16T07:43:34;24.40;99.90
31725;DHT22;18306;40.960;14.836;2022-08-16T07:46:04;24.40;99.90
31725;DHT22;18306;40.960;14.836;2022-08-16T07:48:37;24.80;99.90
31725;DHT22;18306;40.960;14.836;2022-08-16T07:51:06;25.10;99.90
31725;DHT22;18306;40.960;14.836;2022-08-16T07:53:40;25.40;99.90
31725;DHT22;18306;40.960;14.836;2022-08-16T07:56:09;25.30;99.90
31725;DHT22;18306;40.960;14.836;2022-08-16T07:58:38;25.40;99.90
31725;DHT22;18306;40.960;14.836;2022-08-16T08:01:10;25.50;99.90
31725;DHT22;18306;40.960;14.836;2022-08-16T08:03:44;25.80;99.90
31725;DHT22;18306;40.960;14.836;2022-08-16T08:06:11;26.30;99.90
31725;DHT22;18306;40.960;14.836;2022-08-16T08:08:39;26.70;99.90
31725;DHT22;18306;40.960;14.836;2022-08-16T08:11:07;27.10;99.90
31725;DHT22;18306;40.960;14.836;2022-08-16T08:13:35;28.30;99.90
31725;DHT22;18306;40.960;14.836;2022-08-16T08:16:03;33.10;99.90
31725;DHT22;18306;40.960;14.836;2022-08-16T08:18:36;35.70;99.90
31725;DHT22;18306;40.960;14.836;2022-08-16T08:21:03;33.00;99.90
31725;DHT22;18306;40.960;14.836;2022-08-16T08:23:32;32.60;99.90
31725;DHT22;18306;40.960;14.836;2022-08-16T08:26:03;33.60;99.90
31725;DHT22;18306;40.960;14.836;2022-08-16T08:28:31;32.00;99.90
31725;DHT22;18306;40.960;14.836;2022-08-16T08:31:04;30.30;99.90
31725;DHT22;18306;40.960;14.836;2022-08-16T08:33:35;28.90;99.90
31725;DHT22;18306;40.960;14.836;2022-08-16T08:36:03;28.20;99.90
31725;DHT22;18306;40.960;14.836;2022-08-16T08:38:33;27.50;99.90
31725;DHT22;18306;40.960;14.836;2022-08-16T08:41:02;26.90;99.90
31725;DHT22;18306;40.960;14.836;2022-08-16T08:43:32;26.60;99.90
31725;DHT22;18306;40.960;14.836;2022-08-16T08:46:02;26.60;99.90
31725;DHT22;18306;40.960;14.836;2022-08-16T08:48:31;26.80;99.90
31725;DHT22;18306;40.960;14.836;2022-08-16T08:51:00;26.80;99.90
31725;DHT22;18306;40.960;14.836;2022-08-16T08:53:27;26.90;99.90
31725;DHT22;18306;40.960;14.836;2022-08-16T08:55:54;27.00;99.90
31725;DHT22;18306;40.960;14.836;2022-08-16T08:58:21;27.20;99.90
31725;DHT22;18306;40.960;14.836;2022-08-16T09:01:28;27.10;99.90
31725;DHT22;18306;40.960;14.836;2022-08-16T09:03:56;27.20;99.90
31725;DHT22;18306;40.960;14.836;2022-08-16T09:06:22;27.20;99.90
31725;DHT22;18306;40.960;14.836;2022-08-16T09:08:49;27.40;99.90
31725;DHT22;18306;40.960;14.836;2022-08-16T09:11:16;27.40;99.90
31725;DHT22;18306;40.960;14.836;2022-08-16T09:13:42;27.50;99.90
31725;DHT22;18306;40.960;14.836;2022-08-16T09:16:09;27.40;99.90
31725;DHT22;18306;40.960;14.836;2022-08-16T09:18:38;27.30;99.90
31725;DHT22;18306;40.960;14.836;2022-08-16T09:21:06;27.40;99.90
31725;DHT22;18306;40.960;14.836;2022-08-16T09:23:32;27.40;99.90
31725;DHT22;18306;40.960;14.836;2022-08-16T09:26:06;27.50;99.90
31725;DHT22;18306;40.960;14.836;2022-08-16T09:28:33;27.50;99.90
31725;DHT22;18306;40.960;14.836;2022-08-16T09:31:10;27.40;99.90
31725;DHT22;18306;40.960;14.836;2022-08-16T09:33:38;27.40;99.90
31725;DHT22;18306;40.960;14.836;2022-08-16T09:36:05;27.40;99.90
31725;DHT22;18306;40.960;14.836;2022-08-16T09:38:32;27.40;99.90
31725;DHT22;18306;40.960;14.836;2022-08-16T09:41:01;27.60;99.90
31725;DHT22;18306;40.960;14.836;2022-08-16T09:43:28;27.60;99.90
31725;DHT22;18306;40.960;14.836;2022-08-16T09:45:55;27.70;99.90
31725;DHT22;18306;40.960;14.836;2022-08-16T09:48:22;27.70;99.90
31725;DHT22;18306;40.960;14.836;2022-08-16T09:50:48;27.80;99.90
31725;DHT22;18306;40.960;14.836;2022-08-16T09:53:17;27.90;99.90
31725;DHT22;18306;40.960;14.836;2022-08-16T09:55:45;27.80;99.90
31725;DHT22;18306;40.960;14.836;2022-08-16T09:58:13;27.90;99.90
31725;DHT22;18306;40.960;14.836;2022-08-16T10:00:39;27.90;99.90
31725;DHT22;18306;40.960;14.836;2022-08-16T10:03:06;28.10;99.90
31725;DHT22;18306;40.960;14.836;2022-08-16T10:05:34;28.10;99.90
31725;DHT22;18306;40.960;14.836;2022-08-16T10:08:05;28.00;99.90
31725;DHT22;18306;40.960;14.836;2022-08-16T10:10:33;28.00;99.90
31725;DHT22;18306;40.960;14.836;2022-08-16T10:13:01;27.90;99.90
31725;DHT22;18306;40.960;14.836;2022-08-16T10:15:38;28.00;99.90
31725;DHT22;18306;40.960;14.836;2022-08-16T10:18:06;27.90;99.90
31725;DHT22;18306;40.960;14.836;2022-08-16T10:20:39;27.90;99.90
31725;DHT22;18306;40.960;14.836;2022-08-16T10:23:11;27.90;99.90
31725;DHT22;18306;40.960;14.836;2022-08-16T10:25:42;27.80;99.90
31725;DHT22;18306;40.960;14.836;2022-08-16T10:28:08;27.60;99.90
31725;DHT22;18306;40.960;14.836;2022-08-16T10:30:36;27.40;99.90
31725;DHT22;18306;40.960;14.836;2022-08-16T10:33:04;27.60;99.90
31725;DHT22;18306;40.960;14.836;2022-08-16T10:35:31;27.80;99.90
31725;DHT22;18306;40.960;14.836;2022-08-16T10:37:58;28.00;99.90
31725;DHT22;18306;40.960;14.836;2022-08-16T10:40:24;28.20;99.90
31725;DHT22;18306;40.960;14.836;2022-08-16T10:42:51;28.30;99.90
31725;DHT22;18306;40.960;14.836;2022-08-16T10:45:18;28.20;99.90
31725;DHT22;18306;40.960;14.836;2022-08-16T10:47:45;28.00;99.90
31725;DHT22;18306;40.960;14.836;2022-08-16T10:50:12;28.10;99.90
31725;DHT22;18306;40.960;14.836;2022-08-16T10:52:38;28.20;99.90
31725;DHT22;18306;40.960;14.836;2022-08-16T10:55:16;28.20;99.90
31725;DHT22;18306;40.960;14.836;2022-08-16T10:57:44;28.30;99.90
31725;DHT22;18306;40.960;14.836;2022-08-16T11:00:12;28.40;99.90
31725;DHT22;18306;40.960;14.836;2022-08-16T11:02:41;28.30;99.90
31725;DHT22;18306;40.960;14.836;2022-08-16T11:05:09;28.30;99.90
31725;DHT22;18306;40.960;14.836;2022-08-16T11:07:41;28.40;99.90
31725;DHT22;18306;40.960;14.836;2022-08-16T11:10:08;28.50;99.90
31725;DHT22;18306;40.960;14.836;2022-08-16T11:12:35;28.70;99.90
31725;DHT22;18306;40.960;14.836;2022-08-16T11:15:02;28.70;99.90
31725;DHT22;18306;40.960;14.836;2022-08-16T11:17:29;28.70;99.90
31725;DHT22;18306;40.960;14.836;2022-08-16T11:19:56;28.80;99.90
31725;DHT22;18306;40.960;14.836;2022-08-16T11:22:23;28.60;99.90
31725;DHT22;18306;40.960;14.836;2022-08-16T11:24:51;28.50;99.90
31725;DHT22;18306;40.960;14.836;2022-08-16T11:27:23;28.40;99.90
31725;DHT22;18306;40.960;14.836;2022-08-16T11:29:54;28.80;99.90
31725;DHT22;18306;40.960;14.836;2022-08-16T11:32:23;29.10;99.90
31725;DHT22;18306;40.960;14.836;2022-08-16T11:34:51;29.20;99.90
31725;DHT22;18306;40.960;14.836;2022-08-16T11:37:22;29.30;99.90
31725;DHT22;18306;40.960;14.836;2022-08-16T11:39:48;29.20;99.90
31725;DHT22;18306;40.960;14.836;2022-08-16T11:42:15;29.00;99.90
31725;DHT22;18306;40.960;14.836;2022-08-16T11:44:42;29.10;99.90
31725;DHT22;18306;40.960;14.836;2022-08-16T11:47:09;29.10;99.90
31725;DHT22;18306;40.960;14.836;2022-08-16T11:49:38;29.10;99.90
31725;DHT22;18306;40.960;14.836;2022-08-16T11:52:07;29.40;99.90
31725;DHT22;18306;40.960;14.836;2022-08-16T11:54:34;29.50;99.90
31725;DHT22;18306;40.960;14.836;2022-08-16T11:57:06;29.40;99.90
31725;DHT22;18306;40.960;14.836;2022-08-16T11:59:32;29.40;99.90
31725;DHT22;18306;40.960;14.836;2022-08-16T12:02:01;29.40;99.90
31725;DHT22;18306;40.960;14.836;2022-08-16T12:04:28;29.40;99.90
31725;DHT22;18306;40.960;14.836;2022-08-16T12:06:59;29.30;99.90
31725;DHT22;18306;40.960;14.836;2022-08-16T12:09:27;29.30;99.90
31725;DHT22;18306;40.960;14.836;2022-08-16T12:11:54;29.20;99.90
31725;DHT22;18306;40.960;14.836;2022-08-16T12:14:21;29.30;99.90
31725;DHT22;18306;40.960;14.836;2022-08-16T12:16:47;29.60;99.90
31725;DHT22;18306;40.960;14.836;2022-08-16T12:19:14;29.60;99.90
31725;DHT22;18306;40.960;14.836;2022-08-16T12:21:41;29.70;99.90
31725;DHT22;18306;40.960;14.836;2022-08-16T12:24:07;29.50;99.90
31725;DHT22;18306;40.960;14.836;2022-08-16T12:26:34;29.40;99.90
31725;DHT22;18306;40.960;14.836;2022-08-16T12:29:01;29.20;99.90
31725;DHT22;18306;40.960;14.836;2022-08-16T12:31:29;28.80;99.90
31725;DHT22;18306;40.960;14.836;2022-08-16T12:34:00;28.70;99.90
31725;DHT22;18306;40.960;14.836;2022-08-16T12:36:26;29.00;99.90
31725;DHT22;18306;40.960;14.836;2022-08-16T12:38:53;29.30;99.90
31725;DHT22;18306;40.960;14.836;2022-08-16T12:41:20;29.60;99.90
31725;DHT22;18306;40.960;14.836;2022-08-16T12:43:47;29.60;99.90
31725;DHT22;18306;40.960;14.836;2022-08-16T12:46:14;29.70;99.90
31725;DHT22;18306;40.960;14.836;2022-08-16T12:48:40;29.60;99.90
31725;DHT22;18306;40.960;14.836;2022-08-16T12:51:27;29.80;99.90
31725;DHT22;18306;40.960;14.836;2022-08-16T12:53:55;29.60;99.90
31725;DHT22;18306;40.960;14.836;2022-08-16T12:56:24;29.70;99.90
31725;DHT22;18306;40.960;14.836;2022-08-16T12:58:52;29.80;99.90
31725;DHT22;18306;40.960;14.836;2022-08-16T13:01:19;29.80;99.90
31725;DHT22;18306;40.960;14.836;2022-08-16T13:03:47;29.60;99.90
31725;DHT22;18306;40.960;14.836;2022-08-16T13:06:18;29.30;99.90
31725;DHT22;18306;40.960;14.836;2022-08-16T13:08:45;29.40;99.90
31725;DHT22;18306;40.960;14.836;2022-08-16T13:11:12;29.60;99.90
31725;DHT22;18306;40.960;14.836;2022-08-16T13:13:39;29.70;99.90
31725;DHT22;18306;40.960;14.836;2022-08-16T13:16:06;29.80;99.90
31725;DHT22;18306;40.960;14.836;2022-08-16T13:18:33;29.50;99.90
31725;DHT22;18306;40.960;14.836;2022-08-16T13:21:05;29.20;99.90
31725;DHT22;18306;40.960;14.836;2022-08-16T13:23:32;29.10;99.90
31725;DHT22;18306;40.960;14.836;2022-08-16T13:25:59;29.10;99.90
31725;DHT22;18306;40.960;14.836;2022-08-16T13:28:26;29.20;99.90
31725;DHT22;18306;40.960;14.836;2022-08-16T13:30:53;29.30;99.90
31725;DHT22;18306;40.960;14.836;2022-08-16T13:33:24;29.50;99.90
31725;DHT22;18306;40.960;14.836;2022-08-16T13:35:52;29.40;99.90
31725;DHT22;18306;40.960;14.836;2022-08-16T13:38:23;29.40;99.90
31725;DHT22;18306;40.960;14.836;2022-08-16T13:40:54;29.30;99.90
31725;DHT22;18306;40.960;14.836;2022-08-16T13:43:21;29.30;99.90
31725;DHT22;18306;40.960;14.836;2022-08-16T13:45:48;29.20;99.90
31725;DHT22;18306;40.960;14.836;2022-08-16T13:48:17;29.20;99.90
31725;DHT22;18306;40.960;14.836;2022-08-16T13:50:50;29.10;99.90
31725;DHT22;18306;40.960;14.836;2022-08-16T13:53:18;29.10;99.90
31725;DHT22;18306;40.960;14.836;2022-08-16T13:55:46;29.20;99.90
31725;DHT22;18306;40.960;14.836;2022-08-16T13:58:13;29.10;99.90
31725;DHT22;18306;40.960;14.836;2022-08-16T14:00:42;29.20;99.90
31725;DHT22;18306;40.960;14.836;2022-08-16T14:03:11;29.10;99.90
31725;DHT22;18306;40.960;14.836;2022-08-16T14:05:37;29.10;99.90
31725;DHT22;18306;40.960;14.836;2022-08-16T14:08:04;29.10;99.90
31725;DHT22;18306;40.960;14.836;2022-08-16T14:10:31;29.10;99.90
31725;DHT22;18306;40.960;14.836;2022-08-16T14:12:58;29.00;99.90
31725;DHT22;18306;40.960;14.836;2022-08-16T14:15:25;29.20;99.90
31725;DHT22;18306;40.960;14.836;2022-08-16T14:17:53;29.20;99.90
31725;DHT22;18306;40.960;14.836;2022-08-16T14:20:19;29.20;99.90
31725;DHT22;18306;40.960;14.836;2022-08-16T14:22:46;29.10;99.90
31725;DHT22;18306;40.960;14.836;2022-08-16T14:25:16;29.00;99.90
31725;DHT22;18306;40.960;14.836;2022-08-16T14:27:44;29.10;99.90
31725;DHT22;18306;40.960;14.836;2022-08-16T14:30:12;29.00;99.90
31725;DHT22;18306;40.960;14.836;2022-08-16T14:32:39;28.80;99.90
31725;DHT22;18306;40.960;14.836;2022-08-16T14:35:08;28.90;99.90
31725;DHT22;18306;40.960;14.836;2022-08-16T14:37:37;28.90;99.90
31725;DHT22;18306;40.960;14.836;2022-08-16T14:40:04;28.90;99.90
31725;DHT22;18306;40.960;14.836;2022-08-16T14:42:31;28.90;99.90
31725;DHT22;18306;40.960;14.836;2022-08-16T14:44:58;28.80;99.90
31725;DHT22;18306;40.960;14.836;2022-08-16T14:47:25;28.80;99.90
31725;DHT22;18306;40.960;14.836;2022-08-16T14:49:52;28.80;99.90
31725;DHT22;18306;40.960;14.836;2022-08-16T14:52:22;28.90;99.90
31725;DHT22;18306;40.960;14.836;2022-08-16T14:54:49;29.00;99.90
31725;DHT22;18306;40.960;14.836;2022-08-16T14:57:30;28.90;99.90
31725;DHT22;18306;40.960;14.836;2022-08-16T14:59:56;28.90;99.90
31725;DHT22;18306;40.960;14.836;2022-08-16T15:02:26;28.80;99.90
31725;DHT22;18306;40.960;14.836;2022-08-16T15:04:52;28.80;99.90
31725;DHT22;18306;40.960;14.836;2022-08-16T15:07:27;28.70;99.90
31725;DHT22;18306;40.960;14.836;2022-08-16T15:09:53;28.60;99.90
31725;DHT22;18306;40.960;14.836;2022-08-16T15:12:21;28.60;99.90
31725;DHT22;18306;40.960;14.836;2022-08-16T15:14:49;28.70;99.90
31725;DHT22;18306;40.960;14.836;2022-08-16T15:17:18;28.70;99.90
31725;DHT22;18306;40.960;14.836;2022-08-16T15:19:46;28.80;99.90
31725;DHT22;18306;40.960;14.836;2022-08-16T15:22:26;28.90;99.90
31725;DHT22;18306;40.960;14.836;2022-08-16T15:25:03;28.80;99.90
31725;DHT22;18306;40.960;14.836;2022-08-16T15:27:31;28.80;99.90
31725;DHT22;18306;40.960;14.836;2022-08-16T15:29:58;28.80;99.90